Time;durP1;ratioP1;P1;durP2;ratioP2;P2;SDS_P1;SDS_P2;PMS_P1;PMS_P2;Temp;Humidity;BMP_temperature;BMP_pressure;BME280_temperature;BME280_humidity;BME280_pressure;Samples;Min_cycle;Max_cycle;Signal;HPM_P1;HPM_P2
2024/04/02 00:01:41;;;;;;;4.50;0.90;;;;;;;12.03;93.51;98676.92;110222;1276;22237;-76
2024/04/02 00:04:30;;;;;;;;;;;;;;;12.04;93.57;98675.39;110198;1276;23303;-76
2024/04/02 00:07:21;;;;;;;3.90;0.80;;;;;;;11.99;93.65;98674.70;110227;1279;22183;-77
2024/04/02 00:10:11;;;;;;;6.20;0.90;;;;;;;11.97;93.89;98672.95;110289;1273;23554;-78
2024/04/02 00:13:02;;;;;;;2.70;0.70;;;;;;;11.93;93.97;98673.23;110331;1264;22246;-78
2024/04/02 00:15:52;;;;;;;4.30;0.90;;;;;;;11.88;94.22;98675.48;110243;1280;22241;-77
2024/04/02 00:18:42;;;;;;;5.60;0.90;;;;;;;11.84;94.35;98679.23;110208;1280;22350;-76
2024/04/02 00:21:34;;;;;;;5.70;0.60;;;;;;;11.81;94.39;98685.08;110223;1280;22243;-77
2024/04/02 00:24:24;;;;;;;3.30;0.70;;;;;;;11.77;94.47;98687.25;110199;1274;22364;-76
2024/04/02 00:27:13;;;;;;;;;;;;;;;11.73;94.34;98683.22;110230;1279;22370;-76
2024/04/02 00:30:04;;;;;;;3.00;0.70;;;;;;;11.70;94.14;98682.41;110213;1277;22282;-77
2024/04/02 00:32:54;;;;;;;6.30;0.60;;;;;;;11.68;94.33;98684.50;110244;1276;22240;-76
2024/04/02 00:35:45;;;;;;;2.80;0.40;;;;;;;11.64;94.45;98690.15;110220;1273;22191;-77
2024/04/02 00:38:35;;;;;;;3.90;0.80;;;;;;;11.64;94.30;98684.77;110228;1276;22141;-78
2024/04/02 00:41:26;;;;;;;2.60;0.50;;;;;;;11.62;94.34;98685.39;110237;1276;22538;-77
2024/04/02 00:44:16;;;;;;;3.00;0.50;;;;;;;11.58;93.86;98688.11;110258;1279;22371;-77
2024/04/02 00:47:09;;;;;;;1.50;0.40;;;;;;;11.55;93.88;98685.52;110238;1280;22252;-77
2024/04/02 00:50:00;;;;;;;1.30;0.40;;;;;;;11.50;93.46;98680.79;110268;1273;22288;-77
2024/04/02 00:52:50;;;;;;;2.70;0.20;;;;;;;11.45;93.47;98678.25;110277;1279;22400;-77
2024/04/02 00:55:42;;;;;;;1.50;0.30;;;;;;;11.42;93.16;98679.75;110218;1276;23072;-80
2024/04/02 00:58:32;;;;;;;1.80;0.30;;;;;;;11.36;92.96;98677.10;110145;1277;22306;-77
2024/04/02 01:01:22;;;;;;;2.80;0.50;;;;;;;11.27;92.44;98679.32;110232;1271;22361;-77
2024/04/02 01:04:13;;;;;;;4.70;0.30;;;;;;;11.17;92.35;98689.20;110301;1279;22384;-78
2024/04/02 01:07:02;;;;;;;;;;;;;;;11.09;92.57;98700.04;110259;1280;22334;-79
2024/04/02 01:09:53;;;;;;;0.60;0.20;;;;;;;10.98;92.85;98708.20;110194;1280;22363;-78
2024/04/02 01:12:43;;;;;;;1.50;0.30;;;;;;;10.91;92.75;98718.95;110240;1280;23058;-79
2024/04/02 01:15:33;;;;;;;1.90;0.60;;;;;;;10.85;92.66;98735.19;110231;1270;22390;-78
2024/04/02 01:18:23;;;;;;;1.20;0.30;;;;;;;10.81;92.76;98748.77;110293;1279;23065;-78
2024/04/02 01:21:12;;;;;;;;;;;;;;;10.76;92.63;98751.02;110237;1276;22483;-78
2024/04/02 01:24:03;;;;;;;1.90;0.60;;;;;;;10.68;92.49;98752.59;110277;1274;22196;-78
2024/04/02 01:26:53;;;;;;;2.30;0.50;;;;;;;10.59;92.24;98746.30;110270;1279;22214;-79
2024/04/02 01:29:43;;;;;;;1.90;0.50;;;;;;;10.53;92.05;98755.90;110285;1276;22985;-79
2024/04/02 01:32:33;;;;;;;2.80;0.70;;;;;;;10.46;91.78;98756.45;110254;1276;23121;-79
2024/04/02 01:35:24;;;;;;;2.00;0.60;;;;;;;10.41;91.68;98758.60;110218;1273;22186;-78
2024/04/02 01:38:13;;;;;;;;;;;;;;;10.34;91.73;98759.14;110231;1276;22346;-78
2024/04/02 01:41:03;;;;;;;2.40;0.70;;;;;;;10.26;91.85;98758.81;110244;1276;22167;-78
2024/04/02 01:43:53;;;;;;;2.20;0.80;;;;;;;10.20;91.79;98759.80;110310;1279;22239;-80
2024/04/02 01:46:44;;;;;;;3.00;0.80;;;;;;;10.15;91.90;98760.88;110304;1277;22222;-79
2024/04/02 01:49:34;;;;;;;3.10;0.90;;;;;;;10.11;91.93;98762.19;110230;1274;22396;-78
2024/04/02 01:52:24;;;;;;;2.00;0.80;;;;;;;10.07;92.04;98756.46;110210;1279;22220;-78
2024/04/02 01:55:14;;;;;;;3.20;0.90;;;;;;;10.03;91.80;98757.84;110222;1280;22339;-78
2024/04/02 01:58:05;;;;;;;2.30;0.70;;;;;;;9.97;91.73;98760.09;110185;1280;22229;-81
2024/04/02 02:00:54;;;;;;;;;;;;;;;9.92;91.60;98761.01;110205;1281;23043;-79
2024/04/02 02:03:44;;;;;;;3.10;1.00;;;;;;;9.90;91.53;98766.33;110198;1280;22634;-79
2024/04/02 02:06:34;;;;;;;8.70;1.10;;;;;;;9.88;91.80;98769.78;110329;1279;22272;-79
2024/04/02 02:09:24;;;;;;;3.10;0.90;;;;;;;9.85;91.68;98769.48;110207;1273;22249;-78
2024/04/02 02:12:14;;;;;;;4.80;0.90;;;;;;;9.80;91.83;98766.26;110288;1276;22960;-79
2024/04/02 02:15:06;;;;;;;2.90;0.80;;;;;;;9.78;91.84;98767.27;110310;1279;22329;-79
2024/04/02 02:17:56;;;;;;;3.00;0.80;;;;;;;9.75;91.75;98768.70;110223;1274;22216;-77
2024/04/02 02:20:46;;;;;;;4.30;0.80;;;;;;;9.73;91.71;98765.80;110263;1274;22385;-79
2024/04/02 02:23:35;;;;;;;;;;;;;;;9.71;91.73;98767.98;110320;1274;22486;-79
2024/04/02 02:26:25;;;;;;;2.30;0.90;;;;;;;9.67;91.52;98763.89;110300;1274;22384;-79
2024/04/02 02:29:16;;;;;;;4.50;1.20;;;;;;;9.64;91.27;98759.84;110267;1279;22264;-78
2024/04/02 02:32:07;;;;;;;3.30;0.80;;;;;;;9.63;91.48;98763.03;110215;1280;22155;-80
2024/04/02 02:34:57;;;;;;;2.50;0.70;;;;;;;9.61;91.33;98769.41;110216;1280;22599;-80
2024/04/02 02:37:48;;;;;;;5.10;0.90;;;;;;;9.59;91.34;98766.63;110228;1274;22200;-79
2024/04/02 02:40:38;;;;;;;2.10;0.70;;;;;;;9.58;91.32;98770.94;110210;1273;22308;-79
2024/04/02 02:43:28;;;;;;;2.80;0.90;;;;;;;9.57;91.39;98773.77;110214;1274;22337;-79
2024/04/02 02:46:17;;;;;;;;;;;;;;;9.55;91.41;98772.40;110324;1279;22591;-80
2024/04/02 02:49:07;;;;;;;3.10;0.80;;;;;;;9.51;91.41;98770.98;110300;1273;22516;-79
2024/04/02 02:51:59;;;;;;;2.60;0.80;;;;;;;9.49;91.13;98772.56;110332;1279;23004;-78
2024/04/02 02:54:49;;;;;;;4.80;0.90;;;;;;;9.47;91.22;98765.88;110241;1280;22311;-79
2024/04/02 02:57:39;;;;;;;;;;;;;;;9.46;91.27;98765.54;110253;1280;22290;-79
2024/04/02 03:00:29;;;;;;;3.30;0.90;;;;;;;9.45;91.22;98762.69;110227;1273;22236;-78
2024/04/02 03:03:18;;;;;;;;;;;;;;;9.44;90.92;98761.42;110260;1277;22392;-79
2024/04/02 03:06:09;;;;;;;4.60;0.90;;;;;;;9.41;91.07;98760.00;110226;1272;22218;-80
2024/04/02 03:08:59;;;;;;;4.90;0.80;;;;;;;9.40;90.91;98754.84;110301;1274;22257;-80
2024/04/02 03:11:49;;;;;;;2.80;0.70;;;;;;;9.40;90.99;98752.05;110237;1274;22232;-80
2024/04/02 03:14:38;;;;;;;;;;;;;;;9.39;90.84;98746.79;110239;1274;22351;-80
2024/04/02 03:17:28;;;;;;;3.80;0.80;;;;;;;9.36;90.91;98743.89;110279;1279;22266;-80
2024/04/02 03:20:19;;;;;;;2.00;0.70;;;;;;;9.34;91.08;98749.02;110258;1276;23529;-78
2024/04/02 03:23:10;;;;;;;2.20;0.70;;;;;;;9.32;91.09;98751.91;110235;1274;22930;-79
2024/04/02 03:26:02;;;;;;;3.10;0.70;;;;;;;9.33;90.84;98758.48;110208;1277;23016;-78
2024/04/02 03:28:53;;;;;;;2.50;0.80;;;;;;;9.30;91.01;98765.67;110224;1276;22757;-80
2024/04/02 03:31:47;;;;;;;2.30;0.80;;;;;;;9.28;90.89;98778.64;110206;1273;22444;-79
2024/04/02 03:34:37;;;;;;;2.90;0.80;;;;;;;9.27;91.04;98793.07;110205;1276;22195;-78
2024/04/02 03:37:28;;;;;;;3.00;0.60;;;;;;;9.25;90.91;98792.85;110237;1273;22882;-79
2024/04/02 03:40:18;;;;;;;3.60;0.70;;;;;;;9.24;90.70;98794.38;110292;1273;22407;-77
2024/04/02 03:43:08;;;;;;;1.60;0.50;;;;;;;9.23;90.61;98792.71;110208;1273;22373;-78
2024/04/02 03:46:02;;;;;;;2.10;0.60;;;;;;;9.21;90.20;98792.96;110159;1280;23352;-79
2024/04/02 03:48:52;;;;;;;2.10;0.50;;;;;;;9.20;90.11;98785.36;110233;1280;22274;-78
2024/04/02 03:51:42;;;;;;;1.50;0.50;;;;;;;9.19;89.99;98775.93;110190;1280;22338;-78
2024/04/02 03:54:32;;;;;;;3.30;0.60;;;;;;;9.17;89.79;98773.45;110212;1280;23035;-78
2024/04/02 03:57:23;;;;;;;2.10;0.60;;;;;;;9.14;89.67;98764.74;110321;1277;22858;-80
2024/04/02 04:00:14;;;;;;;2.40;0.60;;;;;;;9.11;89.12;98753.81;110222;1276;22198;-79
2024/04/02 04:03:04;;;;;;;2.40;0.40;;;;;;;9.08;89.11;98749.92;110143;1280;22217;-79
2024/04/02 04:06:00;;;;;;;1.10;0.30;;;;;;;9.07;89.19;98747.95;110256;1274;23112;-79
2024/04/02 04:08:50;;;;;;;1.40;0.40;;;;;;;9.04;88.90;98748.40;110326;1279;22294;-80
2024/04/02 04:11:42;;;;;;;1.80;0.40;;;;;;;9.03;88.92;98752.34;109440;1274;26021;-89
2024/04/02 04:14:37;;;;;;;4.30;0.40;;;;;;;9.04;88.93;98751.42;108001;1280;24423;-89
2024/04/02 04:17:29;;;;;;;2.20;0.40;;;;;;;9.03;88.72;98749.56;108186;1280;25212;-88
2024/04/02 04:20:21;;;;;;;2.70;0.40;;;;;;;9.02;88.83;98750.92;108226;1280;22626;-89
2024/04/02 04:23:15;;;;;;;2.70;0.40;;;;;;;9.00;88.94;98749.04;108114;1270;22489;-89
2024/04/02 04:26:07;;;;;;;1.40;0.50;;;;;;;8.97;88.53;98751.02;108364;1280;22588;-89
2024/04/02 04:28:59;;;;;;;4.40;0.60;;;;;;;8.95;88.38;98751.46;108141;1280;22570;-88
2024/04/02 04:31:50;;;;;;;2.10;0.50;;;;;;;8.93;88.45;98755.80;108275;1280;22599;-88
2024/04/02 04:34:43;;;;;;;1.70;0.50;;;;;;;8.91;88.41;98758.09;108225;1280;23223;-88
2024/04/02 04:37:36;;;;;;;3.40;0.60;;;;;;;8.90;88.51;98762.14;108201;1280;22566;-88
2024/04/02 04:40:32;;;;;;;2.70;0.70;;;;;;;8.88;88.34;98760.20;108160;1280;25254;-88
2024/04/02 04:43:29;;;;;;;2.00;0.80;;;;;;;8.86;88.36;98761.73;108079;1280;22560;-87
2024/04/02 04:46:24;;;;;;;5.80;1.10;;;;;;;8.83;88.26;98763.09;108360;1280;22556;-89
2024/04/02 04:49:16;;;;;;;4.70;1.10;;;;;;;8.81;88.26;98763.48;108560;1277;22528;-88
2024/04/02 04:52:11;;;;;;;4.20;1.00;;;;;;;8.80;88.37;98774.00;108631;1280;22731;-89
2024/04/02 04:55:05;;;;;;;3.60;0.80;;;;;;;8.78;88.46;98773.99;108441;1280;25471;-91
2024/04/02 04:58:03;;;;;;;5.40;0.90;;;;;;;8.77;88.20;98776.77;108278;1280;25270;-89
2024/04/02 05:01:14;;;;;;;5.50;0.90;;;;;;;8.76;88.19;98780.02;108220;1280;22662;-90
2024/04/02 05:04:37;;;;;;;4.80;1.10;;;;;;;8.76;88.21;98789.83;108631;1273;24214;-88
2024/04/02 05:07:32;;;;;;;4.10;0.80;;;;;;;8.75;88.20;98796.60;108229;1280;22532;-88
2024/04/02 05:10:27;;;;;;;5.00;1.00;;;;;;;8.74;88.11;98801.35;108336;1271;25309;-88
2024/04/02 05:13:26;;;;;;;3.30;0.80;;;;;;;8.74;88.26;98805.40;108838;1279;25363;-89
2024/04/02 05:16:21;;;;;;;4.30;1.10;;;;;;;8.72;88.06;98810.77;108533;1279;22508;-89
2024/04/02 05:19:15;;;;;;;4.40;1.10;;;;;;;8.72;87.97;98810.95;108684;1279;25002;-89
2024/04/02 05:22:13;;;;;;;4.50;0.70;;;;;;;8.72;88.00;98813.80;108374;1279;22494;-89
2024/04/02 05:25:05;;;;;;;3.70;0.90;;;;;;;8.73;87.85;98825.59;108857;1280;23987;-90
2024/04/02 05:28:07;;;;;;;3.60;0.70;;;;;;;8.74;87.83;98832.17;108540;1280;22571;-89
2024/04/02 05:31:03;;;;;;;3.30;0.70;;;;;;;8.75;87.76;98842.17;108582;1280;22797;-89
2024/04/02 05:33:59;;;;;;;1.80;0.40;;;;;;;8.76;87.53;98842.04;108946;1280;22597;-89
2024/04/02 05:36:57;;;;;;;2.80;0.60;;;;;;;8.77;87.56;98843.20;108499;1280;25232;-89
2024/04/02 05:39:53;;;;;;;2.30;0.60;;;;;;;8.78;87.63;98848.31;108660;1281;25204;-88
2024/04/02 05:42:53;;;;;;;7.80;0.60;;;;;;;8.78;87.34;98849.53;108647;1280;22541;-89
2024/04/02 05:45:45;;;;;;;2.20;0.60;;;;;;;8.80;87.41;98842.45;109071;1280;22564;-90
2024/04/02 05:48:40;;;;;;;2.30;0.50;;;;;;;8.81;87.38;98846.34;108990;1279;22570;-88
2024/04/02 05:51:34;;;;;;;3.30;0.40;;;;;;;8.83;87.34;98851.27;108445;1280;24002;-89
2024/04/02 05:54:26;;;;;;;1.90;0.60;;;;;;;8.84;87.38;98858.52;108218;1280;25268;-88
2024/04/02 05:57:23;;;;;;;1.40;0.40;;;;;;;8.86;87.33;98858.31;108316;1280;22546;-88
2024/04/02 06:00:21;;;;;;;1.80;0.40;;;;;;;8.87;87.24;98850.99;108404;1280;22804;-88
2024/04/02 06:03:16;;;;;;;1.10;0.30;;;;;;;8.90;87.23;98852.41;107896;1279;22498;-90
2024/04/02 06:06:11;;;;;;;2.50;0.30;;;;;;;8.91;86.73;98845.93;107746;1280;25352;-87
2024/04/02 06:09:03;;;;;;;3.60;0.40;;;;;;;8.94;86.93;98846.55;107629;1280;23344;-87
2024/04/02 06:11:58;;;;;;;2.00;0.30;;;;;;;8.97;87.04;98844.53;107689;1280;22485;-88
2024/04/02 06:14:51;;;;;;;1.90;0.50;;;;;;;9.00;86.89;98847.13;107658;1279;22518;-89
2024/04/02 06:17:44;;;;;;;2.30;0.50;;;;;;;9.03;86.76;98853.36;107865;1279;22573;-87
2024/04/02 06:20:37;;;;;;;8.20;0.50;;;;;;;9.06;86.74;98855.34;107936;1279;22528;-87
2024/04/02 06:23:30;;;;;;;1.90;0.40;;;;;;;9.10;86.65;98861.11;107991;1279;23355;-88
2024/04/02 06:26:24;;;;;;;1.00;0.30;;;;;;;9.14;86.49;98853.14;107814;1279;22555;-86
2024/04/02 06:29:16;;;;;;;2.70;0.60;;;;;;;9.19;86.57;98850.11;107823;1273;22489;-87
2024/04/02 06:32:11;;;;;;;1.80;0.40;;;;;;;9.23;86.55;98842.88;107864;1279;24209;-87
2024/04/02 06:35:05;;;;;;;3.20;0.50;;;;;;;9.28;86.44;98843.95;107734;1279;22564;-87
2024/04/02 06:37:59;;;;;;;3.00;0.70;;;;;;;9.34;86.15;98848.41;107697;1279;25494;-88
2024/04/02 06:40:52;;;;;;;4.60;0.50;;;;;;;9.40;85.97;98855.16;107818;1279;25256;-88
2024/04/02 06:43:46;;;;;;;1.70;0.50;;;;;;;9.44;86.06;98862.61;107738;1279;22563;-87
2024/04/02 06:46:39;;;;;;;4.70;0.60;;;;;;;9.51;86.17;98871.42;107857;1279;25272;-87
2024/04/02 06:49:31;;;;;;;5.00;0.70;;;;;;;9.58;85.86;98877.02;107820;1279;22566;-87
2024/04/02 06:52:24;;;;;;;1.50;0.40;;;;;;;9.63;85.99;98885.93;107877;1279;25255;-87
2024/04/02 06:55:16;;;;;;;3.30;0.50;;;;;;;9.69;85.36;98892.32;107707;1279;25229;-88
2024/04/02 06:58:09;;;;;;;2.40;0.40;;;;;;;9.73;85.53;98898.70;107789;1279;22543;-87
2024/04/02 07:01:04;;;;;;;2.00;0.40;;;;;;;9.78;85.38;98904.95;107885;1279;24442;-87
2024/04/02 07:03:57;;;;;;;4.00;0.40;;;;;;;9.84;85.50;98905.36;107754;1280;22526;-86
2024/04/02 07:06:49;;;;;;;4.40;0.40;;;;;;;9.89;85.10;98905.05;108036;1279;22563;-86
2024/04/02 07:09:43;;;;;;;1.60;0.40;;;;;;;9.93;85.00;98904.39;107788;1280;22778;-86
2024/04/02 07:12:35;;;;;;;1.60;0.30;;;;;;;9.97;84.99;98907.23;108007;1279;23287;-86
2024/04/02 07:15:27;;;;;;;1.20;0.30;;;;;;;9.98;84.55;98906.16;107868;1279;25300;-86
2024/04/02 07:18:21;;;;;;;3.70;0.60;;;;;;;9.99;84.40;98904.40;107611;1279;22681;-86
2024/04/02 07:21:17;;;;;;;6.00;0.60;;;;;;;10.02;84.60;98907.24;107840;1279;22553;-86
2024/04/02 07:24:10;;;;;;;3.40;0.60;;;;;;;10.04;84.59;98912.36;107791;1279;22576;-87
2024/04/02 07:27:02;;;;;;;3.70;0.70;;;;;;;10.05;84.33;98909.88;107967;1279;23024;-86
2024/04/02 07:29:54;;;;;;;4.70;0.80;;;;;;;10.07;84.29;98906.73;108015;1279;22577;-86
2024/04/02 07:32:46;;;;;;;2.40;0.60;;;;;;;10.08;83.92;98913.52;107827;1277;22565;-85
2024/04/02 07:35:40;;;;;;;3.90;0.70;;;;;;;10.08;84.02;98917.16;107695;1272;22531;-87
2024/04/02 07:38:33;;;;;;;5.50;0.70;;;;;;;10.09;83.88;98920.30;107831;1279;22556;-86
2024/04/02 07:41:25;;;;;;;2.20;0.60;;;;;;;10.10;83.96;98922.36;107804;1279;22719;-86
2024/04/02 07:44:17;;;;;;;2.50;0.50;;;;;;;10.13;84.28;98921.41;107859;1279;22559;-86
2024/04/02 07:47:09;;;;;;;1.50;0.40;;;;;;;10.16;84.27;98920.48;108005;1279;24393;-86
2024/04/02 07:50:03;;;;;;;4.30;0.70;;;;;;;10.20;84.10;98920.95;107964;1279;25287;-86
2024/04/02 07:52:55;;;;;;;3.40;0.70;;;;;;;10.23;83.86;98928.64;108109;1277;22562;-86
2024/04/02 07:55:48;;;;;;;3.50;0.60;;;;;;;10.27;83.86;98927.55;107828;1279;22493;-86
2024/04/02 07:58:40;;;;;;;1.70;0.50;;;;;;;10.31;84.00;98929.70;107933;1279;22559;-86
2024/04/02 08:01:32;;;;;;;3.30;0.60;;;;;;;10.35;83.64;98933.61;108012;1279;25284;-86
2024/04/02 08:04:25;;;;;;;4.50;0.80;;;;;;;10.40;83.26;98939.02;108014;1279;25702;-87
2024/04/02 08:07:17;;;;;;;1.80;0.50;;;;;;;10.43;83.21;98942.98;107807;1279;24199;-86
2024/04/02 08:10:09;;;;;;;3.30;0.60;;;;;;;10.48;83.43;98942.97;107901;1279;22608;-87
2024/04/02 08:13:01;;;;;;;5.10;0.70;;;;;;;10.53;83.39;98946.16;108033;1279;25233;-85
2024/04/02 08:15:53;;;;;;;2.60;0.60;;;;;;;10.59;83.35;98950.05;108024;1279;23207;-85
2024/04/02 08:18:46;;;;;;;4.30;0.80;;;;;;;10.67;83.50;98958.27;107848;1279;22745;-87
2024/04/02 08:21:38;;;;;;;5.10;0.70;;;;;;;10.75;83.39;98961.65;107957;1280;24508;-85
2024/04/02 08:24:29;;;;;;;4.50;0.70;;;;;;;10.84;83.35;98971.38;108090;1279;24265;-86
2024/04/02 08:27:21;;;;;;;4.40;0.50;;;;;;;10.93;83.10;98975.92;108109;1279;24226;-85
2024/04/02 08:30:13;;;;;;;10.30;0.90;;;;;;;11.00;82.89;98980.05;107946;1279;22679;-86
2024/04/02 08:33:05;;;;;;;1.80;0.70;;;;;;;11.07;82.34;98980.05;107933;1279;23293;-86
2024/04/02 08:35:56;;;;;;;4.00;0.60;;;;;;;11.15;82.54;98990.98;107882;1279;23077;-86
2024/04/02 08:38:48;;;;;;;3.20;0.70;;;;;;;11.24;82.23;98996.09;108106;1279;25322;-85
2024/04/02 08:41:42;;;;;;;3.00;0.70;;;;;;;11.31;81.55;99004.54;107881;1279;22532;-85
2024/04/02 08:44:36;;;;;;;3.90;0.60;;;;;;;11.39;81.93;99004.45;107960;1279;22498;-86
2024/04/02 08:47:30;;;;;;;2.50;0.70;;;;;;;11.49;81.24;99008.03;108015;1279;22544;-85
2024/04/02 08:50:24;;;;;;;2.80;0.60;;;;;;;11.53;80.84;99008.92;107918;1279;22565;-86
2024/04/02 08:53:15;;;;;;;4.20;0.70;;;;;;;11.59;80.96;99012.60;107953;1279;24296;-85
2024/04/02 08:56:12;;;;;;;3.30;0.70;;;;;;;11.64;80.23;99011.70;108075;1278;25262;-86
2024/04/02 08:59:04;;;;;;;3.30;0.70;;;;;;;11.67;79.99;99005.22;107883;1276;24109;-86
2024/04/02 09:02:01;;;;;;;4.40;0.80;;;;;;;11.68;79.70;99010.15;107893;1279;25445;-87
2024/04/02 09:04:55;;;;;;;3.10;0.90;;;;;;;11.70;79.12;99021.38;107968;1277;22535;-86
2024/04/02 09:07:46;;;;;;;4.50;0.90;;;;;;;11.72;78.95;99027.26;108021;1279;24729;-84
2024/04/02 09:10:38;;;;;;;2.20;0.70;;;;;;;11.74;78.71;99032.42;107877;1279;22545;-86
2024/04/02 09:13:29;;;;;;;5.30;1.00;;;;;;;11.79;78.96;99030.48;107986;1278;23756;-85
2024/04/02 09:16:22;;;;;;;3.30;0.90;;;;;;;11.83;78.91;99036.15;107928;1274;25447;-85
2024/04/02 09:19:13;;;;;;;2.60;0.80;;;;;;;11.85;78.54;99032.92;107989;1279;22515;-85
2024/04/02 09:22:06;;;;;;;3.10;0.80;;;;;;;11.89;79.08;99028.34;107852;1270;22546;-85
2024/04/02 09:24:59;;;;;;;4.00;0.70;;;;;;;11.94;78.13;99033.99;107885;1280;26571;-86
2024/04/02 09:27:52;;;;;;;3.30;1.00;;;;;;;11.95;78.20;99033.98;107987;1279;22534;-86
2024/04/02 09:30:43;;;;;;;5.30;0.90;;;;;;;11.95;78.08;99029.10;107950;1280;25462;-86
2024/04/02 09:33:37;;;;;;;4.60;0.90;;;;;;;11.97;77.21;99029.77;107904;1280;22610;-84
2024/04/02 09:36:42;;;;;;;3.30;1.00;;;;;;;12.00;76.91;99028.46;108158;1276;25214;-86
2024/04/02 09:39:34;;;;;;;4.40;0.80;;;;;;;12.06;77.32;99032.16;108119;1270;22589;-85
2024/04/02 09:42:28;;;;;;;2.20;0.50;;;;;;;12.14;77.06;99032.60;108092;1279;22654;-84
2024/04/02 09:45:20;;;;;;;3.00;0.80;;;;;;;12.22;76.16;99036.98;107968;1279;24174;-86
2024/04/02 09:48:13;;;;;;;4.20;0.70;;;;;;;12.28;75.46;99031.64;108077;1278;22552;-83
2024/04/02 09:51:06;;;;;;;4.90;0.60;;;;;;;12.34;75.48;99029.56;108113;1279;25071;-84
2024/04/02 09:53:59;;;;;;;2.50;0.60;;;;;;;12.44;74.88;99029.14;107876;1279;23148;-84
2024/04/02 09:56:52;;;;;;;3.20;0.50;;;;;;;12.52;74.49;99031.81;107840;1277;24469;-84
2024/04/02 09:59:43;;;;;;;1.60;0.40;;;;;;;12.60;73.73;99031.60;107988;1279;25234;-84
2024/04/02 10:02:36;;;;;;;2.80;0.50;;;;;;;12.66;73.92;99036.83;108002;1279;22536;-84
2024/04/02 10:05:28;;;;;;;3.20;0.50;;;;;;;12.74;72.61;99041.55;107963;1270;24282;-84
2024/04/02 10:08:25;;;;;;;6.00;0.70;;;;;;;12.76;72.99;99038.84;107977;1279;22563;-84
2024/04/02 10:11:19;;;;;;;3.90;0.40;;;;;;;12.82;72.43;99043.50;108024;1273;26545;-85
2024/04/02 10:14:12;;;;;;;1.10;0.30;;;;;;;12.85;71.87;99039.30;107902;1279;22570;-86
2024/04/02 10:17:13;;;;;;;1.50;0.40;;;;;;;12.89;71.51;99046.05;107842;1279;22658;-84
2024/04/02 10:20:03;;;;;;;;;;;;;;;12.93;70.81;99044.44;107923;1279;22540;-85
2024/04/02 10:22:56;;;;;;;2.70;0.40;;;;;;;12.96;70.90;99043.84;107887;1279;22552;-85
2024/04/02 10:25:49;;;;;;;3.10;0.40;;;;;;;12.99;71.09;99051.45;107959;1279;25234;-85
2024/04/02 10:28:43;;;;;;;2.90;0.50;;;;;;;13.05;71.01;99053.40;108077;1279;22645;-85
2024/04/02 10:31:40;;;;;;;2.30;0.40;;;;;;;13.11;71.18;99051.45;108160;1276;24207;-86
2024/04/02 10:34:32;;;;;;;2.00;0.40;;;;;;;13.16;70.30;99060.79;107981;1280;22533;-85
2024/04/02 10:37:24;;;;;;;1.50;0.30;;;;;;;13.20;69.67;99064.41;107923;1279;22554;-85
2024/04/02 10:40:17;;;;;;;2.80;0.20;;;;;;;13.16;68.91;99060.89;107976;1275;24298;-86
2024/04/02 10:43:10;;;;;;;1.50;0.30;;;;;;;13.10;68.52;99063.00;108096;1275;22558;-86
2024/04/02 10:46:03;;;;;;;2.40;0.40;;;;;;;13.06;67.74;99065.66;107853;1280;22533;-85
2024/04/02 10:48:59;;;;;;;1.50;0.50;;;;;;;13.06;67.64;99071.33;108275;1280;223624;-87
2024/04/02 10:51:51;;;;;;;3.70;0.40;;;;;;;13.11;67.82;99067.56;108509;1279;22566;-86
2024/04/02 10:54:42;;;;;;;5.30;0.40;;;;;;;13.20;67.46;99064.36;108456;1279;22655;-86
2024/04/02 10:57:34;;;;;;;1.40;0.10;;;;;;;13.33;68.14;99061.26;108222;1277;23372;-87
2024/04/02 11:00:25;;;;;;;1.50;0.20;;;;;;;13.46;67.19;99058.10;108382;1280;24309;-85
2024/04/02 11:03:17;;;;;;;2.20;0.20;;;;;;;13.56;67.39;99061.91;108598;1279;22582;-87
2024/04/02 11:06:11;;;;;;;2.70;0.20;;;;;;;13.66;66.74;99062.66;108321;1279;22737;-85
2024/04/02 11:09:03;;;;;;;3.20;0.50;;;;;;;13.72;65.77;99064.23;108312;1278;22669;-85
2024/04/02 11:11:57;;;;;;;2.80;0.20;;;;;;;13.80;66.09;99060.10;108165;1279;22689;-87
2024/04/02 11:14:51;;;;;;;3.40;0.20;;;;;;;13.90;66.21;99062.55;108168;1276;23311;-85
2024/04/02 11:17:43;;;;;;;1.60;0.10;;;;;;;13.96;65.12;99055.70;108200;1279;22534;-86
2024/04/02 11:20:34;;;;;;;3.00;0.30;;;;;;;13.96;64.31;99051.21;108213;1279;22589;-87
2024/04/02 11:26:36;;;;;;;3.50;0.20;;;;;;;14.01;63.04;99057.58;108093;1279;22531;-85
2024/04/02 11:29:28;;;;;;;8.20;0.30;;;;;;;14.08;61.96;99052.17;108313;1279;23328;-85
2024/04/02 11:32:20;;;;;;;2.00;0.20;;;;;;;14.15;61.76;99056.30;108228;1279;22549;-85
2024/04/02 11:35:15;;;;;;;3.00;0.10;;;;;;;14.13;60.89;99049.84;107979;1279;23861;-86
2024/04/02 11:38:07;;;;;;;6.10;0.30;;;;;;;14.07;60.49;99054.38;107907;1279;22555;-85
2024/04/02 11:41:05;;;;;;;10.30;0.40;;;;;;;14.04;59.51;99056.36;107934;1279;24288;-88
2024/04/02 11:43:58;;;;;;;6.40;0.60;;;;;;;14.02;59.65;99052.73;107978;1279;22657;-86
2024/04/02 11:46:51;;;;;;;1.50;0.50;;;;;;;14.07;59.97;99050.85;107504;1279;22562;-86
2024/04/02 11:49:44;;;;;;;2.50;0.30;;;;;;;14.19;60.13;99048.64;107498;1279;22598;-87
2024/04/02 11:52:38;;;;;;;2.70;0.20;;;;;;;14.26;60.30;99052.98;107455;1279;25598;-86
2024/04/02 11:55:31;;;;;;;6.90;0.40;;;;;;;14.25;59.84;99059.43;107559;1280;22533;-86
2024/04/02 12:01:33;;;;;;;2.30;0.40;;;;;;;14.11;59.79;99059.16;107739;1280;23218;-86
2024/04/02 12:04:27;;;;;;;2.20;0.30;;;;;;;14.09;59.28;99072.55;107648;1280;22535;-87
2024/04/02 12:07:18;;;;;;;6.10;0.40;;;;;;;14.09;58.87;99081.55;107784;1280;23331;-87
2024/04/02 12:10:13;;;;;;;5.60;0.50;;;;;;;14.13;58.38;99082.55;107769;1280;22533;-86
2024/04/02 12:13:06;;;;;;;2.30;0.20;;;;;;;14.16;57.53;99078.94;107644;1279;22542;-86
2024/04/02 12:15:58;;;;;;;10.00;0.50;;;;;;;14.20;57.45;99082.31;107824;1281;22574;-86
2024/04/02 12:18:53;;;;;;;14.90;0.80;;;;;;;14.26;57.38;99075.13;107505;1281;22594;-86
2024/04/02 12:21:45;;;;;;;3.80;0.20;;;;;;;14.32;57.11;99081.04;107661;1281;22570;-87
2024/04/02 12:24:38;;;;;;;4.30;0.60;;;;;;;14.36;57.42;99081.91;107751;1279;23935;-86
2024/04/02 12:27:31;;;;;;;3.30;0.50;;;;;;;14.43;57.15;99077.15;107864;1276;22548;-85
2024/04/02 12:30:22;;;;;;;5.60;0.60;;;;;;;14.52;56.74;99074.50;107574;1280;22605;-85
2024/04/02 12:33:14;;;;;;;6.70;0.70;;;;;;;14.58;56.85;99076.30;107582;1280;22574;-86
2024/04/02 12:36:07;;;;;;;3.50;0.40;;;;;;;14.63;56.86;99078.22;107868;1279;23936;-86
2024/04/02 12:38:58;;;;;;;11.60;0.40;;;;;;;14.61;56.15;99085.70;107516;1280;23486;-85
2024/04/02 12:41:51;;;;;;;13.70;0.40;;;;;;;14.55;55.62;99092.11;107594;1280;25239;-85
2024/04/02 12:44:43;;;;;;;8.60;0.50;;;;;;;14.48;55.34;99099.17;107694;1274;24263;-87
2024/04/02 12:47:34;;;;;;;2.70;0.30;;;;;;;14.41;55.16;99090.31;107511;1279;22569;-85
2024/04/02 12:50:27;;;;;;;6.10;0.40;;;;;;;14.33;55.65;99088.77;107438;1277;24437;-85
2024/04/02 12:53:20;;;;;;;4.30;0.30;;;;;;;14.34;56.44;99083.66;107326;1276;23089;-86
2024/04/02 12:56:14;;;;;;;50.00;1.90;;;;;;;14.37;55.26;99095.36;107346;1270;22529;-86
2024/04/02 12:59:05;;;;;;;30.20;1.70;;;;;;;14.33;53.97;99103.17;107498;1273;22691;-85
2024/04/02 13:01:57;;;;;;;18.70;1.30;;;;;;;14.28;54.10;99097.30;107820;1279;24791;-86
2024/04/02 13:04:48;;;;;;;8.30;0.40;;;;;;;14.26;54.15;99098.14;107546;1279;22533;-86
2024/04/02 13:07:42;;;;;;;5.70;0.40;;;;;;;14.26;54.01;99094.82;107998;1277;22531;-85
2024/04/02 13:10:47;;;;;;;4.70;0.30;;;;;;;14.28;54.49;99095.05;107446;1276;22664;-86
2024/04/02 13:13:42;;;;;;;3.70;0.30;;;;;;;14.32;54.59;99091.49;107912;1276;22543;-86
2024/04/02 13:16:36;;;;;;;17.00;0.80;;;;;;;14.35;54.77;99100.91;107875;1279;22683;-87
2024/04/02 13:19:27;;;;;;;24.60;1.30;;;;;;;14.35;54.33;99106.98;108272;1279;22600;-88
2024/04/02 13:22:18;;;;;;;7.00;0.30;;;;;;;14.32;54.38;99105.08;108184;1273;22535;-87
2024/04/02 13:25:09;;;;;;;22.10;0.70;;;;;;;14.35;54.28;99104.23;107825;1279;22564;-86
2024/04/02 13:28:00;;;;;;;29.00;1.70;;;;;;;14.37;53.67;99100.55;107679;1280;22575;-87
2024/04/02 13:30:51;;;;;;;2.80;0.20;;;;;;;14.37;53.62;99092.61;107537;1279;23349;-85
2024/04/02 13:33:44;;;;;;;4.50;0.40;;;;;;;14.36;53.32;99099.30;107651;1279;23900;-85
2024/04/02 13:36:36;;;;;;;11.60;0.50;;;;;;;14.34;53.53;99111.39;107596;1280;22542;-85